sensor_id;sensor_type;location;lat;lon;timestamp;P1;durP1;ratioP1;P2;durP2;ratioP2
2293;SDS011;1155;42.644;23.264;2022-07-29T00:01:57;8.00;;;7.03;;
2293;SDS011;1155;42.644;23.264;2022-07-29T00:04:24;7.37;;;6.53;;
2293;SDS011;1155;42.644;23.264;2022-07-29T00:07:08;9.47;;;7.47;;
2293;SDS011;1155;42.644;23.264;2022-07-29T00:09:36;9.20;;;8.30;;
2293;SDS011;1155;42.644;23.264;2022-07-29T00:12:06;7.67;;;6.87;;
2293;SDS011;1155;42.644;23.264;2022-07-29T00:14:35;10.43;;;7.63;;
2293;SDS011;1155;42.644;23.264;2022-07-29T00:17:02;8.27;;;7.57;;
2293;SDS011;1155;42.644;23.264;2022-07-29T00:19:29;10.60;;;7.80;;
2293;SDS011;1155;42.644;23.264;2022-07-29T00:21:59;10.60;;;9.07;;
2293;SDS011;1155;42.644;23.264;2022-07-29T00:24:36;10.13;;;8.97;;
2293;SDS011;1155;42.644;23.264;2022-07-29T00:27:02;9.53;;;8.63;;
2293;SDS011;1155;42.644;23.264;2022-07-29T00:29:30;9.00;;;8.10;;
2293;SDS011;1155;42.644;23.264;2022-07-29T00:32:11;10.30;;;9.00;;
2293;SDS011;1155;42.644;23.264;2022-07-29T00:34:42;12.27;;;9.87;;
2293;SDS011;1155;42.644;23.264;2022-07-29T00:37:26;9.77;;;8.77;;
2293;SDS011;1155;42.644;23.264;2022-07-29T00:39:58;11.47;;;9.10;;
2293;SDS011;1155;42.644;23.264;2022-07-29T00:42:28;10.27;;;9.07;;
2293;SDS011;1155;42.644;23.264;2022-07-29T00:44:57;10.87;;;8.90;;
2293;SDS011;1155;42.644;23.264;2022-07-29T00:47:25;9.80;;;8.30;;
2293;SDS011;1155;42.644;23.264;2022-07-29T00:49:52;8.87;;;8.07;;
2293;SDS011;1155;42.644;23.264;2022-07-29T00:52:18;9.83;;;8.83;;
2293;SDS011;1155;42.644;23.264;2022-07-29T00:54:48;10.30;;;9.20;;
2293;SDS011;1155;42.644;23.264;2022-07-29T00:57:15;10.90;;;9.80;;
2293;SDS011;1155;42.644;23.264;2022-07-29T00:59:42;12.00;;;10.23;;
2293;SDS011;1155;42.644;23.264;2022-07-29T01:02:08;15.20;;;9.40;;
2293;SDS011;1155;42.644;23.264;2022-07-29T01:04:37;10.10;;;9.10;;
2293;SDS011;1155;42.644;23.264;2022-07-29T01:07:04;9.40;;;8.47;;
2293;SDS011;1155;42.644;23.264;2022-07-29T01:09:33;14.70;;;8.53;;
2293;SDS011;1155;42.644;23.264;2022-07-29T01:12:02;10.83;;;9.73;;
2293;SDS011;1155;42.644;23.264;2022-07-29T01:14:32;10.80;;;9.13;;
2293;SDS011;1155;42.644;23.264;2022-07-29T01:17:00;11.10;;;8.50;;
2293;SDS011;1155;42.644;23.264;2022-07-29T01:19:44;11.17;;;8.47;;
2293;SDS011;1155;42.644;23.264;2022-07-29T01:22:28;10.80;;;8.40;;
2293;SDS011;1155;42.644;23.264;2022-07-29T01:25:03;9.03;;;7.90;;
2293;SDS011;1155;42.644;23.264;2022-07-29T01:27:44;9.80;;;8.80;;
2293;SDS011;1155;42.644;23.264;2022-07-29T01:30:28;11.53;;;9.73;;
2293;SDS011;1155;42.644;23.264;2022-07-29T01:33:00;9.33;;;7.40;;
2293;SDS011;1155;42.644;23.264;2022-07-29T01:35:33;9.70;;;8.50;;
2293;SDS011;1155;42.644;23.264;2022-07-29T01:38:08;8.77;;;7.87;;
2293;SDS011;1155;42.644;23.264;2022-07-29T01:40:40;9.13;;;7.80;;
2293;SDS011;1155;42.644;23.264;2022-07-29T01:43:17;9.77;;;8.77;;
2293;SDS011;1155;42.644;23.264;2022-07-29T01:45:52;10.27;;;8.50;;
2293;SDS011;1155;42.644;23.264;2022-07-29T01:48:27;8.77;;;7.87;;
2293;SDS011;1155;42.644;23.264;2022-07-29T01:51:02;13.00;;;8.83;;
2293;SDS011;1155;42.644;23.264;2022-07-29T01:53:34;10.50;;;9.33;;
2293;SDS011;1155;42.644;23.264;2022-07-29T01:56:06;18.63;;;16.67;;
2293;SDS011;1155;42.644;23.264;2022-07-29T01:58:39;15.80;;;12.60;;
2293;SDS011;1155;42.644;23.264;2022-07-29T02:01:11;9.80;;;8.50;;
2293;SDS011;1155;42.644;23.264;2022-07-29T02:03:41;25.07;;;17.23;;
2293;SDS011;1155;42.644;23.264;2022-07-29T02:06:11;204.07;;;104.50;;
2293;SDS011;1155;42.644;23.264;2022-07-29T02:08:46;207.50;;;103.33;;
